sensor_id;sensor_type;location;lat;lon;timestamp;pressure;altitude;pressure_sealevel;temperature;humidity
14612;BME280;7392;52.078;11.650;2023-08-20T00:02:25;101211.09;;;24.04;100.00
14612;BME280;7392;52.078;11.650;2023-08-20T00:04:56;101213.97;;;24.01;100.00
14612;BME280;7392;52.078;11.650;2023-08-20T00:07:25;101214.03;;;24.00;100.00
14612;BME280;7392;52.078;11.650;2023-08-20T00:09:53;101215.16;;;23.96;100.00
14612;BME280;7392;52.078;11.650;2023-08-20T00:12:21;101210.78;;;23.93;100.00
14612;BME280;7392;52.078;11.650;2023-08-20T00:14:53;101211.00;;;23.88;100.00
14612;BME280;7392;52.078;11.650;2023-08-20T00:17:24;101213.88;;;23.85;100.00
14612;BME280;7392;52.078;11.650;2023-08-20T00:19:54;101224.88;;;23.82;100.00
14612;BME280;7392;52.078;11.650;2023-08-20T00:22:22;101217.81;;;23.78;100.00
14612;BME280;7392;52.078;11.650;2023-08-20T00:24:52;101227.94;;;23.75;100.00
14612;BME280;7392;52.078;11.650;2023-08-20T00:27:21;101234.44;;;23.70;100.00
14612;BME280;7392;52.078;11.650;2023-08-20T00:29:49;101236.38;;;23.68;100.00
14612;BME280;7392;52.078;11.650;2023-08-20T00:32:17;101235.66;;;23.65;100.00
14612;BME280;7392;52.078;11.650;2023-08-20T00:34:46;101233.00;;;23.63;100.00
14612;BME280;7392;52.078;11.650;2023-08-20T00:37:14;101235.00;;;23.60;100.00
14612;BME280;7392;52.078;11.650;2023-08-20T00:39:42;101231.50;;;23.58;100.00
14612;BME280;7392;52.078;11.650;2023-08-20T00:42:10;101237.06;;;23.55;100.00
14612;BME280;7392;52.078;11.650;2023-08-20T00:44:39;101240.69;;;23.53;100.00
14612;BME280;7392;52.078;11.650;2023-08-20T00:47:08;101245.31;;;23.51;100.00
14612;BME280;7392;52.078;11.650;2023-08-20T00:49:39;101241.75;;;23.51;100.00
14612;BME280;7392;52.078;11.650;2023-08-20T00:52:09;101248.19;;;23.48;100.00
14612;BME280;7392;52.078;11.650;2023-08-20T00:54:39;101256.38;;;23.47;100.00
14612;BME280;7392;52.078;11.650;2023-08-20T00:57:08;101254.66;;;23.46;100.00
14612;BME280;7392;52.078;11.650;2023-08-20T00:59:36;101262.84;;;23.44;100.00
14612;BME280;7392;52.078;11.650;2023-08-20T01:02:04;101273.81;;;23.41;100.00
14612;BME280;7392;52.078;11.650;2023-08-20T01:04:32;101267.59;;;23.39;100.00
14612;BME280;7392;52.078;11.650;2023-08-20T01:07:07;101258.75;;;23.36;100.00
14612;BME280;7392;52.078;11.650;2023-08-20T01:09:47;101267.81;;;23.34;100.00
14612;BME280;7392;52.078;11.650;2023-08-20T01:12:17;101260.78;;;23.30;100.00
14612;BME280;7392;52.078;11.650;2023-08-20T01:14:46;101265.41;;;23.28;100.00
14612;BME280;7392;52.078;11.650;2023-08-20T01:17:14;101262.84;;;23.25;100.00
14612;BME280;7392;52.078;11.650;2023-08-20T01:19:42;101275.66;;;23.22;100.00
14612;BME280;7392;52.078;11.650;2023-08-20T01:22:26;101276.59;;;23.21;100.00
14612;BME280;7392;52.078;11.650;2023-08-20T01:25:02;101266.81;;;23.18;100.00
14612;BME280;7392;52.078;11.650;2023-08-20T01:27:43;101260.56;;;23.16;100.00
14612;BME280;7392;52.078;11.650;2023-08-20T01:30:18;101271.47;;;23.14;100.00
14612;BME280;7392;52.078;11.650;2023-08-20T01:32:50;101272.44;;;23.13;100.00
14612;BME280;7392;52.078;11.650;2023-08-20T01:35:18;101274.25;;;23.13;100.00
14612;BME280;7392;52.078;11.650;2023-08-20T01:37:46;101286.91;;;23.12;100.00
14612;BME280;7392;52.078;11.650;2023-08-20T01:40:14;101290.59;;;23.11;100.00
14612;BME280;7392;52.078;11.650;2023-08-20T01:42:42;101299.56;;;23.12;100.00
14612;BME280;7392;52.078;11.650;2023-08-20T01:45:09;101300.44;;;23.12;100.00
14612;BME280;7392;52.078;11.650;2023-08-20T01:47:39;101293.22;;;23.13;100.00
14612;BME280;7392;52.078;11.650;2023-08-20T01:50:08;101297.75;;;23.12;100.00
14612;BME280;7392;52.078;11.650;2023-08-20T01:52:36;101306.84;;;23.11;100.00
14612;BME280;7392;52.078;11.650;2023-08-20T01:55:05;101301.41;;;23.11;100.00
14612;BME280;7392;52.078;11.650;2023-08-20T01:57:32;101297.91;;;23.09;100.00
14612;BME280;7392;52.078;11.650;2023-08-20T02:00:01;101309.69;;;23.08;100.00
14612;BME280;7392;52.078;11.650;2023-08-20T02:02:40;101320.50;;;23.08;100.00
14612;BME280;7392;52.078;11.650;2023-08-20T02:05:08;101313.25;;;23.09;100.00
14612;BME280;7392;52.078;11.650;2023-08-20T02:07:37;101312.31;;;23.10;100.00
14612;BME280;7392;52.078;11.650;2023-08-20T02:10:06;101317.81;;;23.08;100.00
14612;BME280;7392;52.078;11.650;2023-08-20T02:12:35;101322.34;;;23.08;100.00
14612;BME280;7392;52.078;11.650;2023-08-20T02:15:04;101318.81;;;23.06;100.00
14612;BME280;7392;52.078;11.650;2023-08-20T02:17:34;101327.00;;;23.04;100.00
14612;BME280;7392;52.078;11.650;2023-08-20T02:20:06;101326.09;;;23.04;100.00
14612;BME280;7392;52.078;11.650;2023-08-20T02:22:36;101328.88;;;23.02;100.00
14612;BME280;7392;52.078;11.650;2023-08-20T02:25:04;101334.34;;;23.01;100.00
14612;BME280;7392;52.078;11.650;2023-08-20T02:27:33;101337.06;;;23.01;100.00
14612;BME280;7392;52.078;11.650;2023-08-20T02:30:01;101337.13;;;22.99;100.00
14612;BME280;7392;52.078;11.650;2023-08-20T02:32:29;101332.69;;;22.98;100.00
14612;BME280;7392;52.078;11.650;2023-08-20T02:34:58;101335.38;;;22.98;100.00
14612;BME280;7392;52.078;11.650;2023-08-20T02:37:27;101331.81;;;22.97;100.00
14612;BME280;7392;52.078;11.650;2023-08-20T02:39:55;101333.53;;;22.98;100.00
14612;BME280;7392;52.078;11.650;2023-08-20T02:42:23;101338.91;;;23.00;100.00
14612;BME280;7392;52.078;11.650;2023-08-20T02:44:51;101338.03;;;23.00;100.00
14612;BME280;7392;52.078;11.650;2023-08-20T02:47:19;101329.00;;;22.99;100.00
14612;BME280;7392;52.078;11.650;2023-08-20T02:49:47;101332.59;;;23.00;100.00
14612;BME280;7392;52.078;11.650;2023-08-20T02:52:14;101336.25;;;22.98;100.00
14612;BME280;7392;52.078;11.650;2023-08-20T02:54:44;101338.09;;;22.98;100.00
14612;BME280;7392;52.078;11.650;2023-08-20T02:57:12;101330.97;;;22.95;100.00
14612;BME280;7392;52.078;11.650;2023-08-20T02:59:39;101335.59;;;22.93;100.00
14612;BME280;7392;52.078;11.650;2023-08-20T03:02:07;101336.63;;;22.91;100.00
14612;BME280;7392;52.078;11.650;2023-08-20T03:04:35;101322.25;;;22.89;100.00
14612;BME280;7392;52.078;11.650;2023-08-20T03:07:03;101335.94;;;22.86;100.00
14612;BME280;7392;52.078;11.650;2023-08-20T03:09:31;101329.69;;;22.84;100.00
14612;BME280;7392;52.078;11.650;2023-08-20T03:12:00;101327.94;;;22.83;100.00
14612;BME280;7392;52.078;11.650;2023-08-20T03:14:28;101329.78;;;22.82;100.00
14612;BME280;7392;52.078;11.650;2023-08-20T03:16:56;101340.69;;;22.81;100.00
14612;BME280;7392;52.078;11.650;2023-08-20T03:19:24;101337.97;;;22.81;100.00
14612;BME280;7392;52.078;11.650;2023-08-20T03:21:52;101330.78;;;22.79;100.00
14612;BME280;7392;52.078;11.650;2023-08-20T03:24:19;101331.59;;;22.82;100.00
14612;BME280;7392;52.078;11.650;2023-08-20T03:26:47;101337.91;;;22.82;100.00
14612;BME280;7392;52.078;11.650;2023-08-20T03:29:17;101347.84;;;22.82;100.00
14612;BME280;7392;52.078;11.650;2023-08-20T03:31:44;101357.72;;;22.83;100.00
14612;BME280;7392;52.078;11.650;2023-08-20T03:34:12;101352.38;;;22.81;100.00
14612;BME280;7392;52.078;11.650;2023-08-20T03:36:41;101342.41;;;22.82;100.00
14612;BME280;7392;52.078;11.650;2023-08-20T03:39:10;101346.03;;;22.82;100.00
14612;BME280;7392;52.078;11.650;2023-08-20T03:41:38;101349.53;;;22.84;100.00
14612;BME280;7392;52.078;11.650;2023-08-20T03:44:06;101335.09;;;22.84;100.00
14612;BME280;7392;52.078;11.650;2023-08-20T03:46:35;101336.00;;;22.84;100.00
14612;BME280;7392;52.078;11.650;2023-08-20T03:49:03;101336.88;;;22.85;100.00
14612;BME280;7392;52.078;11.650;2023-08-20T03:51:31;101345.00;;;22.85;100.00
14612;BME280;7392;52.078;11.650;2023-08-20T03:53:59;101337.81;;;22.84;100.00
14612;BME280;7392;52.078;11.650;2023-08-20T03:56:26;101335.19;;;22.82;100.00
14612;BME280;7392;52.078;11.650;2023-08-20T03:58:55;101340.69;;;22.81;100.00
14612;BME280;7392;52.078;11.650;2023-08-20T04:01:22;101344.31;;;22.79;100.00
14612;BME280;7392;52.078;11.650;2023-08-20T04:03:52;101344.44;;;22.76;100.00
14612;BME280;7392;52.078;11.650;2023-08-20T04:06:20;101338.22;;;22.74;100.00
14612;BME280;7392;52.078;11.650;2023-08-20T04:08:48;101342.84;;;22.72;100.00
14612;BME280;7392;52.078;11.650;2023-08-20T04:11:17;101341.13;;;22.70;100.00
14612;BME280;7392;52.078;11.650;2023-08-20T04:13:45;101344.13;;;22.64;100.00
14612;BME280;7392;52.078;11.650;2023-08-20T04:16:14;101345.13;;;22.61;100.00
14612;BME280;7392;52.078;11.650;2023-08-20T04:18:42;101356.16;;;22.56;100.00
14612;BME280;7392;52.078;11.650;2023-08-20T04:21:11;101359.94;;;22.52;100.00
14612;BME280;7392;52.078;11.650;2023-08-20T04:23:39;101367.34;;;22.47;100.00
14612;BME280;7392;52.078;11.650;2023-08-20T04:26:08;101363.09;;;22.41;100.00
14612;BME280;7392;52.078;11.650;2023-08-20T04:28:36;101365.13;;;22.36;100.00
14612;BME280;7392;52.078;11.650;2023-08-20T04:31:04;101369.91;;;22.30;100.00
14612;BME280;7392;52.078;11.650;2023-08-20T04:33:48;101378.16;;;22.25;100.00
14612;BME280;7392;52.078;11.650;2023-08-20T04:36:21;101377.41;;;22.21;100.00
14612;BME280;7392;52.078;11.650;2023-08-20T04:38:48;101374.75;;;22.20;100.00
14612;BME280;7392;52.078;11.650;2023-08-20T04:41:16;101373.13;;;22.16;100.00
14612;BME280;7392;52.078;11.650;2023-08-20T04:43:45;101365.25;;;22.10;100.00
14612;BME280;7392;52.078;11.650;2023-08-20T04:46:12;101369.91;;;22.06;100.00
14612;BME280;7392;52.078;11.650;2023-08-20T04:48:41;101369.06;;;22.06;100.00
14612;BME280;7392;52.078;11.650;2023-08-20T04:51:09;101370.94;;;22.03;100.00
14612;BME280;7392;52.078;11.650;2023-08-20T04:53:38;101370.94;;;22.03;100.00
14612;BME280;7392;52.078;11.650;2023-08-20T04:56:07;101378.22;;;22.01;100.00
14612;BME280;7392;52.078;11.650;2023-08-20T04:58:35;101374.63;;;22.01;100.00
14612;BME280;7392;52.078;11.650;2023-08-20T05:01:03;101389.03;;;22.01;100.00
14612;BME280;7392;52.078;11.650;2023-08-20T05:03:34;101396.22;;;22.02;100.00
14612;BME280;7392;52.078;11.650;2023-08-20T05:06:02;101389.94;;;22.02;100.00
14612;BME280;7392;52.078;11.650;2023-08-20T05:08:31;101380.91;;;22.01;100.00
14612;BME280;7392;52.078;11.650;2023-08-20T05:11:01;101398.97;;;22.01;100.00
14612;BME280;7392;52.078;11.650;2023-08-20T05:13:29;101394.44;;;22.01;100.00
14612;BME280;7392;52.078;11.650;2023-08-20T05:15:57;101402.53;;;22.01;100.00
14612;BME280;7392;52.078;11.650;2023-08-20T05:18:25;101414.31;;;22.00;100.00
14612;BME280;7392;52.078;11.650;2023-08-20T05:20:54;101407.09;;;22.01;100.00
14612;BME280;7392;52.078;11.650;2023-08-20T05:23:21;101405.25;;;22.01;100.00
14612;BME280;7392;52.078;11.650;2023-08-20T05:25:49;101413.41;;;22.00;100.00
14612;BME280;7392;52.078;11.650;2023-08-20T05:28:20;101417.91;;;22.01;100.00
14612;BME280;7392;52.078;11.650;2023-08-20T05:30:54;101417.84;;;22.02;100.00
14612;BME280;7392;52.078;11.650;2023-08-20T05:33:22;101409.72;;;22.02;100.00
14612;BME280;7392;52.078;11.650;2023-08-20T05:35:50;101427.78;;;22.02;100.00
14612;BME280;7392;52.078;11.650;2023-08-20T05:38:19;101434.94;;;22.03;100.00
14612;BME280;7392;52.078;11.650;2023-08-20T05:40:48;101436.78;;;22.02;100.00
14612;BME280;7392;52.078;11.650;2023-08-20T05:43:16;101445.88;;;22.00;100.00
14612;BME280;7392;52.078;11.650;2023-08-20T05:45:45;101439.59;;;21.99;100.00
14612;BME280;7392;52.078;11.650;2023-08-20T05:48:18;101448.66;;;21.98;100.00
14612;BME280;7392;52.078;11.650;2023-08-20T05:50:46;101458.56;;;21.98;100.00
14612;BME280;7392;52.078;11.650;2023-08-20T05:53:14;101463.09;;;21.97;100.00
14612;BME280;7392;52.078;11.650;2023-08-20T05:55:43;101453.16;;;21.98;100.00
14612;BME280;7392;52.078;11.650;2023-08-20T05:58:11;101460.28;;;22.00;100.00
14612;BME280;7392;52.078;11.650;2023-08-20T06:00:40;101458.47;;;22.01;100.00
14612;BME280;7392;52.078;11.650;2023-08-20T06:03:09;101458.34;;;22.04;100.00
14612;BME280;7392;52.078;11.650;2023-08-20T06:05:37;101460.94;;;22.07;100.00
14612;BME280;7392;52.078;11.650;2023-08-20T06:08:05;101452.78;;;22.09;100.00
14612;BME280;7392;52.078;11.650;2023-08-20T06:10:33;101445.53;;;22.09;100.00
14612;BME280;7392;52.078;11.650;2023-08-20T06:13:01;101443.63;;;22.11;100.00
14612;BME280;7392;52.078;11.650;2023-08-20T06:15:30;101447.16;;;22.13;100.00
14612;BME280;7392;52.078;11.650;2023-08-20T06:17:58;101441.69;;;22.15;100.00
14612;BME280;7392;52.078;11.650;2023-08-20T06:20:27;101442.56;;;22.15;100.00
14612;BME280;7392;52.078;11.650;2023-08-20T06:22:55;101454.22;;;22.17;100.00
14612;BME280;7392;52.078;11.650;2023-08-20T06:25:22;101461.38;;;22.18;100.00
14612;BME280;7392;52.078;11.650;2023-08-20T06:27:50;101457.81;;;22.18;100.00
14612;BME280;7392;52.078;11.650;2023-08-20T06:30:18;101465.00;;;22.19;100.00
14612;BME280;7392;52.078;11.650;2023-08-20T06:32:46;101461.31;;;22.20;100.00
14612;BME280;7392;52.078;11.650;2023-08-20T06:35:14;101467.59;;;22.20;100.00
14612;BME280;7392;52.078;11.650;2023-08-20T06:37:43;101483.94;;;22.19;100.00
14612;BME280;7392;52.078;11.650;2023-08-20T06:40:11;101491.06;;;22.20;100.00
14612;BME280;7392;52.078;11.650;2023-08-20T06:42:40;101486.44;;;22.23;100.00
14612;BME280;7392;52.078;11.650;2023-08-20T06:45:09;101484.53;;;22.26;100.00
14612;BME280;7392;52.078;11.650;2023-08-20T06:47:37;101480.88;;;22.28;100.00
14612;BME280;7392;52.078;11.650;2023-08-20T06:50:06;101492.50;;;22.30;100.00
14612;BME280;7392;52.078;11.650;2023-08-20T06:52:33;101500.41;;;22.36;100.00
14612;BME280;7392;52.078;11.650;2023-08-20T06:55:03;101499.38;;;22.39;100.00
14612;BME280;7392;52.078;11.650;2023-08-20T06:57:31;101498.22;;;22.46;100.00
14612;BME280;7392;52.078;11.650;2023-08-20T06:59:59;101511.38;;;22.55;100.00
14612;BME280;7392;52.078;11.650;2023-08-20T07:02:27;101504.81;;;22.61;100.00
14612;BME280;7392;52.078;11.650;2023-08-20T07:04:55;101509.91;;;22.69;100.00
14612;BME280;7392;52.078;11.650;2023-08-20T07:07:23;101506.88;;;22.76;100.00
14612;BME280;7392;52.078;11.650;2023-08-20T07:09:51;101513.75;;;22.85;100.00
14612;BME280;7392;52.078;11.650;2023-08-20T07:12:20;101507.00;;;22.95;100.00
14612;BME280;7392;52.078;11.650;2023-08-20T07:14:48;101504.91;;;23.02;100.00
14612;BME280;7392;52.078;11.650;2023-08-20T07:17:15;101502.06;;;23.07;98.96
14612;BME280;7392;52.078;11.650;2023-08-20T07:19:43;101509.34;;;23.05;95.08
14612;BME280;7392;52.078;11.650;2023-08-20T07:22:11;101504.97;;;23.01;93.46
14612;BME280;7392;52.078;11.650;2023-08-20T07:24:39;101512.22;;;23.00;93.08
14612;BME280;7392;52.078;11.650;2023-08-20T07:27:07;101500.59;;;22.98;91.86
14612;BME280;7392;52.078;11.650;2023-08-20T07:29:41;101498.00;;;22.95;90.64
14612;BME280;7392;52.078;11.650;2023-08-20T07:32:09;101491.66;;;22.96;91.48
14612;BME280;7392;52.078;11.650;2023-08-20T07:34:38;101476.16;;;23.00;91.71
14612;BME280;7392;52.078;11.650;2023-08-20T07:37:06;101475.91;;;23.06;91.43
14612;BME280;7392;52.078;11.650;2023-08-20T07:39:34;101478.28;;;23.13;91.96
14612;BME280;7392;52.078;11.650;2023-08-20T07:42:02;101466.28;;;23.19;92.20
14612;BME280;7392;52.078;11.650;2023-08-20T07:44:30;101470.66;;;23.23;90.66
14612;BME280;7392;52.078;11.650;2023-08-20T07:46:59;101467.66;;;23.29;89.89
14612;BME280;7392;52.078;11.650;2023-08-20T07:49:27;101469.50;;;23.29;87.29
14612;BME280;7392;52.078;11.650;2023-08-20T07:51:54;101479.28;;;23.31;86.29
14612;BME280;7392;52.078;11.650;2023-08-20T07:54:22;101473.69;;;23.36;86.25
14612;BME280;7392;52.078;11.650;2023-08-20T07:56:50;101477.94;;;23.42;86.36
14612;BME280;7392;52.078;11.650;2023-08-20T07:59:18;101479.44;;;23.49;86.91
14612;BME280;7392;52.078;11.650;2023-08-20T08:01:46;101479.09;;;23.57;86.58
14612;BME280;7392;52.078;11.650;2023-08-20T08:04:16;101474.34;;;23.62;85.59
14612;BME280;7392;52.078;11.650;2023-08-20T08:06:44;101475.81;;;23.69;85.61
14612;BME280;7392;52.078;11.650;2023-08-20T08:09:18;101474.53;;;23.78;85.13
14612;BME280;7392;52.078;11.650;2023-08-20T08:11:46;101488.69;;;23.84;83.72
14612;BME280;7392;52.078;11.650;2023-08-20T08:14:14;101492.19;;;23.88;81.63
14612;BME280;7392;52.078;11.650;2023-08-20T08:16:42;101482.56;;;24.00;82.54
14612;BME280;7392;52.078;11.650;2023-08-20T08:19:11;101479.34;;;24.11;82.26
14612;BME280;7392;52.078;11.650;2023-08-20T08:21:41;101471.75;;;24.19;81.91
14612;BME280;7392;52.078;11.650;2023-08-20T08:24:09;101479.28;;;24.31;81.45
14612;BME280;7392;52.078;11.650;2023-08-20T08:26:37;101482.78;;;24.33;79.49
14612;BME280;7392;52.078;11.650;2023-08-20T08:29:05;101484.84;;;24.28;77.17
14612;BME280;7392;52.078;11.650;2023-08-20T08:34:01;101481.28;;;24.27;78.83
14612;BME280;7392;52.078;11.650;2023-08-20T08:36:30;101487.56;;;24.28;76.99
14612;BME280;7392;52.078;11.650;2023-08-20T08:38:59;101480.81;;;24.37;77.81
14612;BME280;7392;52.078;11.650;2023-08-20T08:41:27;101477.75;;;24.44;77.06
14612;BME280;7392;52.078;11.650;2023-08-20T08:43:55;101477.09;;;24.58;78.23
14612;BME280;7392;52.078;11.650;2023-08-20T08:46:24;101486.47;;;24.70;78.55
14612;BME280;7392;52.078;11.650;2023-08-20T08:48:52;101499.72;;;24.76;76.62
14612;BME280;7392;52.078;11.650;2023-08-20T08:51:20;101499.41;;;24.82;77.13
14612;BME280;7392;52.078;11.650;2023-08-20T08:53:48;101488.88;;;24.94;77.92
14612;BME280;7392;52.078;11.650;2023-08-20T08:56:18;101491.84;;;25.07;78.01
14612;BME280;7392;52.078;11.650;2023-08-20T08:58:46;101492.19;;;25.18;77.15
14612;BME280;7392;52.078;11.650;2023-08-20T09:01:13;101490.72;;;25.30;78.20
14612;BME280;7392;52.078;11.650;2023-08-20T09:03:42;101496.03;;;25.31;75.04
14612;BME280;7392;52.078;11.650;2023-08-20T09:06:09;101487.41;;;25.41;75.27
14612;BME280;7392;52.078;11.650;2023-08-20T09:08:37;101493.31;;;25.49;75.04
14612;BME280;7392;52.078;11.650;2023-08-20T09:11:05;101492.75;;;25.60;75.72
14612;BME280;7392;52.078;11.650;2023-08-20T09:13:36;101489.50;;;25.69;75.27
14612;BME280;7392;52.078;11.650;2023-08-20T09:16:05;101483.66;;;25.76;75.17
14612;BME280;7392;52.078;11.650;2023-08-20T09:18:38;101486.69;;;25.88;75.02
14612;BME280;7392;52.078;11.650;2023-08-20T09:21:07;101486.22;;;25.97;74.64
14612;BME280;7392;52.078;11.650;2023-08-20T09:23:35;101485.25;;;25.98;73.57
14612;BME280;7392;52.078;11.650;2023-08-20T09:26:05;101491.75;;;26.11;73.91
14612;BME280;7392;52.078;11.650;2023-08-20T09:28:42;101489.38;;;26.21;73.66
14612;BME280;7392;52.078;11.650;2023-08-20T09:31:10;101491.63;;;26.30;73.20
14612;BME280;7392;52.078;11.650;2023-08-20T09:33:48;101494.75;;;26.39;73.01
14612;BME280;7392;52.078;11.650;2023-08-20T09:36:16;101495.03;;;26.50;72.98
14612;BME280;7392;52.078;11.650;2023-08-20T09:38:45;101486.78;;;26.67;74.42
14612;BME280;7392;52.078;11.650;2023-08-20T09:41:17;101482.03;;;26.87;74.21
14612;BME280;7392;52.078;11.650;2023-08-20T09:43:47;101476.97;;;26.95;70.99
14612;BME280;7392;52.078;11.650;2023-08-20T09:46:16;101470.59;;;27.11;70.92
14612;BME280;7392;52.078;11.650;2023-08-20T09:48:48;101478.38;;;27.33;72.07
14612;BME280;7392;52.078;11.650;2023-08-20T09:51:23;101473.25;;;27.57;72.16
14612;BME280;7392;52.078;11.650;2023-08-20T09:53:56;101469.69;;;27.71;70.51
14612;BME280;7392;52.078;11.650;2023-08-20T09:56:29;101472.50;;;27.84;71.33
14612;BME280;7392;52.078;11.650;2023-08-20T09:59:00;101468.47;;;27.89;70.49
14612;BME280;7392;52.078;11.650;2023-08-20T10:01:29;101471.81;;;28.09;70.22
14612;BME280;7392;52.078;11.650;2023-08-20T10:03:58;101478.31;;;28.35;69.37
14612;BME280;7392;52.078;11.650;2023-08-20T10:06:27;101475.94;;;28.43;66.07
14612;BME280;7392;52.078;11.650;2023-08-20T10:08:56;101477.94;;;28.54;64.74
14612;BME280;7392;52.078;11.650;2023-08-20T10:11:26;101477.28;;;28.65;65.11
14612;BME280;7392;52.078;11.650;2023-08-20T10:13:54;101472.41;;;28.83;65.77
14612;BME280;7392;52.078;11.650;2023-08-20T10:16:23;101482.09;;;29.01;64.38
14612;BME280;7392;52.078;11.650;2023-08-20T10:18:51;101473.81;;;29.16;64.35
14612;BME280;7392;52.078;11.650;2023-08-20T10:21:23;101474.09;;;29.25;63.14
14612;BME280;7392;52.078;11.650;2023-08-20T10:23:51;101474.22;;;29.37;62.64
14612;BME280;7392;52.078;11.650;2023-08-20T10:26:20;101482.75;;;29.58;62.80
14612;BME280;7392;52.078;11.650;2023-08-20T10:28:48;101479.69;;;29.75;62.44
14612;BME280;7392;52.078;11.650;2023-08-20T10:31:16;101477.31;;;29.96;62.35
14612;BME280;7392;52.078;11.650;2023-08-20T10:33:55;101466.53;;;30.19;61.69
14612;BME280;7392;52.078;11.650;2023-08-20T10:36:24;101469.53;;;30.40;61.21
14612;BME280;7392;52.078;11.650;2023-08-20T10:38:55;101470.19;;;30.68;62.13
14612;BME280;7392;52.078;11.650;2023-08-20T10:41:25;101471.13;;;30.80;59.07
14612;BME280;7392;52.078;11.650;2023-08-20T10:43:58;101473.72;;;30.94;58.53
14612;BME280;7392;52.078;11.650;2023-08-20T10:46:27;101474.88;;;31.03;57.04
14612;BME280;7392;52.078;11.650;2023-08-20T10:49:00;101471.91;;;31.17;57.60
14612;BME280;7392;52.078;11.650;2023-08-20T10:51:32;101478.34;;;31.40;58.38
14612;BME280;7392;52.078;11.650;2023-08-20T10:54:04;101469.31;;;31.62;58.30
14612;BME280;7392;52.078;11.650;2023-08-20T10:56:40;101480.31;;;31.85;57.02
14612;BME280;7392;52.078;11.650;2023-08-20T10:59:09;101480.81;;;32.01;56.66
14612;BME280;7392;52.078;11.650;2023-08-20T11:01:43;101476.97;;;32.15;53.94
14612;BME280;7392;52.078;11.650;2023-08-20T11:04:12;101486.03;;;32.38;54.82
14612;BME280;7392;52.078;11.650;2023-08-20T11:06:42;101480.00;;;32.56;53.06
14612;BME280;7392;52.078;11.650;2023-08-20T11:09:10;101472.13;;;32.62;51.57
14612;BME280;7392;52.078;11.650;2023-08-20T11:11:39;101472.13;;;32.62;50.46
14612;BME280;7392;52.078;11.650;2023-08-20T11:14:11;101479.22;;;32.76;50.99
14612;BME280;7392;52.078;11.650;2023-08-20T11:16:41;101474.94;;;32.84;49.09
14612;BME280;7392;52.078;11.650;2023-08-20T11:19:09;101477.03;;;32.91;49.07
14612;BME280;7392;52.078;11.650;2023-08-20T11:21:40;101476.47;;;33.09;49.89
14612;BME280;7392;52.078;11.650;2023-08-20T11:24:08;101477.16;;;33.22;49.34
14612;BME280;7392;52.078;11.650;2023-08-20T11:26:39;101477.28;;;33.21;47.95
14612;BME280;7392;52.078;11.650;2023-08-20T11:29:07;101467.69;;;33.15;45.61
14612;BME280;7392;52.078;11.650;2023-08-20T11:31:36;101483.41;;;33.24;46.37
14612;BME280;7392;52.078;11.650;2023-08-20T11:34:04;101469.66;;;33.24;45.52
14612;BME280;7392;52.078;11.650;2023-08-20T11:36:34;101471.06;;;33.40;46.63
14612;BME280;7392;52.078;11.650;2023-08-20T11:39:04;101469.06;;;33.51;46.39
14612;BME280;7392;52.078;11.650;2023-08-20T11:41:35;101464.78;;;33.59;47.17
14612;BME280;7392;52.078;11.650;2023-08-20T11:44:04;101461.09;;;33.69;46.33
14612;BME280;7392;52.078;11.650;2023-08-20T11:46:32;101457.97;;;33.84;47.08
14612;BME280;7392;52.078;11.650;2023-08-20T11:49:01;101459.38;;;34.09;48.00
14612;BME280;7392;52.078;11.650;2023-08-20T11:51:35;101460.75;;;34.24;45.79
14612;BME280;7392;52.078;11.650;2023-08-20T11:54:07;101464.25;;;34.26;44.54
14612;BME280;7392;52.078;11.650;2023-08-20T11:56:35;101454.56;;;34.42;45.55
14612;BME280;7392;52.078;11.650;2023-08-20T11:59:05;101449.66;;;34.65;46.04
14612;BME280;7392;52.078;11.650;2023-08-20T12:01:33;101440.56;;;34.94;46.57
14612;BME280;7392;52.078;11.650;2023-08-20T12:04:02;101444.00;;;35.15;46.01
14612;BME280;7392;52.078;11.650;2023-08-20T12:06:31;101445.59;;;35.18;43.71
14612;BME280;7392;52.078;11.650;2023-08-20T12:08:59;101456.53;;;35.29;45.38
14612;BME280;7392;52.078;11.650;2023-08-20T12:11:28;101444.97;;;35.53;46.79
14612;BME280;7392;52.078;11.650;2023-08-20T12:13:57;101445.19;;;35.70;46.52
14612;BME280;7392;52.078;11.650;2023-08-20T12:16:25;101450.72;;;35.70;44.94
14612;BME280;7392;52.078;11.650;2023-08-20T12:18:53;101454.09;;;35.64;44.42
14612;BME280;7392;52.078;11.650;2023-08-20T12:21:20;101441.84;;;35.66;44.42
14612;BME280;7392;52.078;11.650;2023-08-20T12:23:48;101437.72;;;35.90;44.93
14612;BME280;7392;52.078;11.650;2023-08-20T12:26:16;101440.78;;;35.87;42.09
14612;BME280;7392;52.078;11.650;2023-08-20T12:28:46;101444.91;;;35.73;41.74
14612;BME280;7392;52.078;11.650;2023-08-20T12:31:14;101439.66;;;35.70;43.09
14612;BME280;7392;52.078;11.650;2023-08-20T12:33:42;101438.81;;;35.59;42.89
14612;BME280;7392;52.078;11.650;2023-08-20T12:36:10;101439.50;;;35.34;41.94
14612;BME280;7392;52.078;11.650;2023-08-20T12:38:38;101440.25;;;35.26;43.08
14612;BME280;7392;52.078;11.650;2023-08-20T12:41:08;101434.56;;;35.08;41.06
14612;BME280;7392;52.078;11.650;2023-08-20T12:43:36;101440.97;;;34.99;42.85
14612;BME280;7392;52.078;11.650;2023-08-20T12:46:05;101438.38;;;34.97;44.30
14612;BME280;7392;52.078;11.650;2023-08-20T12:48:33;101435.03;;;34.94;45.59
14612;BME280;7392;52.078;11.650;2023-08-20T12:51:01;101439.81;;;34.82;44.96
14612;BME280;7392;52.078;11.650;2023-08-20T12:53:29;101435.91;;;34.84;46.67
14612;BME280;7392;52.078;11.650;2023-08-20T12:55:57;101433.56;;;35.09;46.63
14612;BME280;7392;52.078;11.650;2023-08-20T12:58:25;101436.03;;;34.93;42.10